createdAt,value
2019-03-03T00:00:52.667Z,154.93
2019-03-03T00:02:57.454Z,75.03
2019-03-03T00:05:08.091Z,43.13
2019-03-03T00:07:13.119Z,27.67
2019-03-03T00:09:20.724Z,155.83
2019-03-03T00:11:28.794Z,192.07
2019-03-03T00:13:33.674Z,122.53
2019-03-03T00:15:38.403Z,138.17
2019-03-03T00:17:43.559Z,159.87
2019-03-03T00:19:47.958Z,131.37
2019-03-03T00:21:52.486Z,124.30
2019-03-03T00:23:57.221Z,256.83
2019-03-03T00:26:01.568Z,460.60
2019-03-03T00:28:05.794Z,386.70
2019-03-03T00:30:10.692Z,352.30
2019-03-03T00:32:15.020Z,346.17
2019-03-03T00:34:19.489Z,265.53
2019-03-03T00:36:26.004Z,356.57
2019-03-03T00:38:55.558Z,557.10
2019-03-03T00:41:18.993Z,491.77
2019-03-03T00:43:42.661Z,509.60
2019-03-03T00:46:21.458Z,447.17
2019-03-03T00:48:41.970Z,640.50
2019-03-03T00:51:02.322Z,450.83
2019-03-03T00:53:18.942Z,328.57
2019-03-03T00:55:42.209Z,328.97
2019-03-03T00:58:04.135Z,365.77
2019-03-03T01:00:38.975Z,350.87
2019-03-03T01:02:53.186Z,387.30
2019-03-03T01:05:09.204Z,232.10
2019-03-03T01:07:24.352Z,188.77
2019-03-03T01:09:47.024Z,240.83
2019-03-03T01:12:07.795Z,219.83
2019-03-03T01:14:18.061Z,102.67
2019-03-03T01:16:44.500Z,121.90
2019-03-03T01:19:03.577Z,331.63
2019-03-03T01:21:25.422Z,292.60
2019-03-03T01:23:47.497Z,376.57
2019-03-03T01:25:51.826Z,358.77
2019-03-03T01:27:56.259Z,321.97
2019-03-03T01:30:00.867Z,312.37
2019-03-03T01:32:05.173Z,225.23
2019-03-03T01:34:09.484Z,196.90
2019-03-03T01:36:14.217Z,260.07
2019-03-03T01:38:18.520Z,222.10
2019-03-03T01:40:22.770Z,173.03
2019-03-03T01:42:27.353Z,152.50
2019-03-03T01:44:31.870Z,142.20
2019-03-03T01:46:36.191Z,259.83
2019-03-03T01:48:40.817Z,352.57
2019-03-03T01:50:45.170Z,451.97
2019-03-03T01:52:49.825Z,436.87
2019-03-03T01:54:54.345Z,419.83
2019-03-03T01:56:58.689Z,230.53
2019-03-03T01:59:02.904Z,241.97
2019-03-03T02:01:07.864Z,270.10
2019-03-03T02:03:12.131Z,288.50
2019-03-03T02:05:16.326Z,261.90
2019-03-03T02:07:20.558Z,308.70
2019-03-03T02:09:25.351Z,190.43
2019-03-03T02:11:29.542Z,164.33
2019-03-03T02:13:35.342Z,199.10
2019-03-03T02:15:39.821Z,164.93
2019-03-03T02:17:44.109Z,203.13
2019-03-03T02:19:48.698Z,172.47
2019-03-03T02:21:53.010Z,152.23
2019-03-03T02:23:57.394Z,187.33
2019-03-03T02:26:02.117Z,160.83
2019-03-03T02:28:06.310Z,340.90
2019-03-03T02:30:13.865Z,379.23
2019-03-03T02:32:19.700Z,422.60
2019-03-03T02:34:24.111Z,433.47
2019-03-03T02:36:28.454Z,237.00
2019-03-03T02:38:33.257Z,297.57
2019-03-03T02:40:38.778Z,244.80
2019-03-03T02:42:43.643Z,288.07
2019-03-03T02:44:48.031Z,178.93
2019-03-03T02:46:53.728Z,249.00
2019-03-03T02:48:58.224Z,255.37
2019-03-03T02:51:02.528Z,243.63
2019-03-03T02:53:09.194Z,200.73
2019-03-03T02:55:13.708Z,200.80
2019-03-03T02:57:18.003Z,206.87
2019-03-03T02:59:22.620Z,118.77
2019-03-03T03:01:32.911Z,134.33
2019-03-03T03:03:36.799Z,89.90
2019-03-03T03:05:58.707Z,129.70
2019-03-03T03:08:06.220Z,99.63
2019-03-03T03:10:15.878Z,81.93
2019-03-03T03:12:45.728Z,102.03
2019-03-03T03:15:09.047Z,103.27
2019-03-03T03:17:30.845Z,101.67
2019-03-03T03:20:00.331Z,87.03
2019-03-03T03:22:22.084Z,65.83
2019-03-03T03:24:45.188Z,332.90
2019-03-03T03:26:58.350Z,371.60
2019-03-03T03:29:28.047Z,360.07
2019-03-03T03:31:49.900Z,192.53
2019-03-03T03:34:13.549Z,213.73
2019-03-03T03:36:37.112Z,196.30
2019-03-03T03:38:50.629Z,187.70
2019-03-03T03:41:02.485Z,180.17
2019-03-03T03:43:35.214Z,122.30
2019-03-03T03:45:56.743Z,171.37
2019-03-03T03:48:14.232Z,162.67
2019-03-03T03:50:37.760Z,128.73
2019-03-03T03:52:55.976Z,109.93
2019-03-03T03:55:37.492Z,132.77
2019-03-03T03:58:15.715Z,134.67
2019-03-03T04:00:39.471Z,110.27
2019-03-03T04:03:06.070Z,102.83
2019-03-03T04:05:41.754Z,103.03
2019-03-03T04:08:09.002Z,86.37
2019-03-03T04:10:41.346Z,98.20
2019-03-03T04:13:05.376Z,109.37
2019-03-03T04:15:31.799Z,96.90
2019-03-03T04:18:01.386Z,85.13
2019-03-03T04:20:24.614Z,112.80
2019-03-03T04:22:45.597Z,90.30
2019-03-03T04:25:07.251Z,81.87
2019-03-03T04:27:37.342Z,80.97
2019-03-03T04:30:01.305Z,58.40
2019-03-03T04:32:18.773Z,68.03
2019-03-03T04:34:46.323Z,71.50
2019-03-03T04:37:12.338Z,81.90
2019-03-03T04:39:35.686Z,81.10
2019-03-03T04:41:57.918Z,88.60
2019-03-03T04:44:16.430Z,67.50
2019-03-03T04:46:36.679Z,88.13
2019-03-03T04:49:06.683Z,64.90
2019-03-03T04:51:35.590Z,65.30
2019-03-03T04:53:57.399Z,62.97
2019-03-03T04:56:14.756Z,57.97
2019-03-03T04:58:43.812Z,78.10
2019-03-03T05:01:21.961Z,49.67
2019-03-03T05:03:37.699Z,56.73
2019-03-03T05:05:57.783Z,41.30
2019-03-03T05:08:07.833Z,52.57
2019-03-03T05:10:42.973Z,47.07
2019-03-03T05:13:00.395Z,42.40
2019-03-03T05:15:24.952Z,44.87
2019-03-03T05:17:41.905Z,47.00
2019-03-03T05:19:50.832Z,40.70
2019-03-03T05:21:55.107Z,47.80
2019-03-03T05:23:59.332Z,44.33
2019-03-03T05:26:03.822Z,57.77
2019-03-03T05:28:08.206Z,46.57
2019-03-03T05:30:12.580Z,46.80
2019-03-03T05:32:17.616Z,41.77
2019-03-03T05:34:21.818Z,41.73
2019-03-03T05:36:26.090Z,39.77
2019-03-03T05:38:30.456Z,49.97
2019-03-03T05:40:34.915Z,34.27
2019-03-03T05:42:39.107Z,35.63
2019-03-03T05:44:43.666Z,30.63
2019-03-03T05:46:48.578Z,39.40
2019-03-03T05:48:52.846Z,33.23
2019-03-03T05:50:57.695Z,33.50
2019-03-03T05:53:01.923Z,34.17
2019-03-03T05:55:06.391Z,31.67
2019-03-03T05:57:10.738Z,30.50
2019-03-03T05:59:14.940Z,27.97
2019-03-03T06:01:19.446Z,34.40
2019-03-03T06:03:24.193Z,25.00
2019-03-03T06:05:28.436Z,27.13
2019-03-03T06:07:32.678Z,34.03
2019-03-03T06:09:37.358Z,31.37
2019-03-03T06:11:41.569Z,30.60
2019-03-03T06:13:45.982Z,29.53
2019-03-03T06:15:51.172Z,31.00
2019-03-03T06:17:55.693Z,26.53
2019-03-03T06:20:00.018Z,37.97
2019-03-03T06:22:04.676Z,28.70
2019-03-03T06:24:08.985Z,32.70
2019-03-03T06:26:13.269Z,20.13
2019-03-03T06:28:18.187Z,23.90
2019-03-03T06:30:22.380Z,24.47
2019-03-03T06:32:26.975Z,27.27
2019-03-03T06:34:31.268Z,23.37
2019-03-03T06:36:35.776Z,25.27
2019-03-03T06:38:39.913Z,22.50
2019-03-03T06:40:44.484Z,22.57
2019-03-03T06:42:49.019Z,20.27
2019-03-03T06:44:53.806Z,23.97
2019-03-03T06:46:58.394Z,18.70
2019-03-03T06:49:02.642Z,19.23
2019-03-03T06:51:07.042Z,22.53
2019-03-03T06:53:11.793Z,18.80
2019-03-03T06:55:16.371Z,19.53
2019-03-03T06:57:20.610Z,25.40
2019-03-03T06:59:25.141Z,18.93
2019-03-03T07:01:29.482Z,14.13
2019-03-03T07:03:33.984Z,14.60
2019-03-03T07:05:38.550Z,17.67
2019-03-03T07:07:43.975Z,18.47
2019-03-03T07:09:48.279Z,17.20
2019-03-03T07:11:53.384Z,14.10
2019-03-03T07:13:57.945Z,15.50
2019-03-03T07:16:02.194Z,14.57
2019-03-03T07:18:06.670Z,13.30
2019-03-03T07:20:11.663Z,13.93
2019-03-03T07:22:15.887Z,13.97
2019-03-03T07:24:20.484Z,15.00
2019-03-03T07:26:28.714Z,13.53
2019-03-03T07:28:34.338Z,10.87
2019-03-03T07:30:38.936Z,11.70
2019-03-03T07:33:12.515Z,12.63
2019-03-03T07:35:18.276Z,10.50
2019-03-03T07:37:22.486Z,12.50
2019-03-03T07:39:26.658Z,10.03
2019-03-03T07:41:31.221Z,10.80
2019-03-03T07:43:35.440Z,10.80
2019-03-03T07:45:40.354Z,9.00
2019-03-03T07:47:45.349Z,10.33
2019-03-03T07:49:51.730Z,8.40
2019-03-03T07:51:55.955Z,9.13
2019-03-03T07:54:00.576Z,7.30
2019-03-03T07:56:06.552Z,9.50
2019-03-03T07:58:11.541Z,7.87
2019-03-03T08:00:16.418Z,9.30
2019-03-03T08:02:23.965Z,8.90
2019-03-03T08:04:28.532Z,8.77
2019-03-03T08:06:35.920Z,6.90
2019-03-03T08:08:41.199Z,6.83
2019-03-03T08:10:45.688Z,8.10
2019-03-03T08:12:50.455Z,8.23
2019-03-03T08:14:55.001Z,6.53
2019-03-03T08:16:59.494Z,6.40
2019-03-03T08:19:09.333Z,7.03
2019-03-03T08:21:14.974Z,6.20
2019-03-03T08:23:20.789Z,6.43
2019-03-03T08:25:25.492Z,6.03
2019-03-03T08:27:29.779Z,5.90
2019-03-03T08:29:34.172Z,5.87
2019-03-03T08:31:38.618Z,6.60
2019-03-03T08:33:46.058Z,5.37
2019-03-03T08:35:50.322Z,5.93
2019-03-03T08:37:55.076Z,5.97
2019-03-03T08:39:59.637Z,4.77
2019-03-03T08:42:24.821Z,6.10
2019-03-03T08:44:48.153Z,5.67
2019-03-03T08:47:17.310Z,5.30
2019-03-03T08:49:39.933Z,5.20
2019-03-03T08:51:54.751Z,6.10
2019-03-03T08:54:36.805Z,4.80
2019-03-03T08:56:58.564Z,5.10
2019-03-03T08:59:25.642Z,4.33
2019-03-03T09:01:52.293Z,4.80
2019-03-03T09:04:05.508Z,4.73
2019-03-03T09:06:38.317Z,4.87
2019-03-03T09:09:04.680Z,4.37
2019-03-03T09:11:44.106Z,5.63
2019-03-03T09:14:01.471Z,4.57
2019-03-03T09:16:21.005Z,4.47
2019-03-03T09:18:35.732Z,4.60
2019-03-03T09:20:59.526Z,4.10
2019-03-03T09:23:31.987Z,4.80
2019-03-03T09:26:08.178Z,3.60
2019-03-03T09:28:50.121Z,4.10
2019-03-03T09:31:05.567Z,3.83
2019-03-03T09:33:49.476Z,4.43
2019-03-03T09:36:27.275Z,4.07
2019-03-03T09:38:52.265Z,3.80
2019-03-03T09:41:19.215Z,3.80
2019-03-03T09:43:29.718Z,3.50
2019-03-03T09:45:58.642Z,3.70
2019-03-03T09:48:13.023Z,4.13
2019-03-03T09:50:35.795Z,3.90
2019-03-03T09:52:54.999Z,3.80
2019-03-03T09:55:27.954Z,3.73
2019-03-03T09:57:51.757Z,3.70
2019-03-03T10:00:16.132Z,3.57
2019-03-03T10:02:42.397Z,3.50
2019-03-03T10:05:18.355Z,4.13
2019-03-03T10:07:53.751Z,3.00
2019-03-03T10:10:10.585Z,3.20
2019-03-03T10:12:23.564Z,46.90
2019-03-03T10:14:34.690Z,107.83
2019-03-03T10:17:05.449Z,119.87
2019-03-03T10:19:39.776Z,132.30
2019-03-03T10:22:09.383Z,159.40
2019-03-03T10:24:24.863Z,172.43
2019-03-03T10:26:52.300Z,183.57
2019-03-03T10:29:21.230Z,199.90
2019-03-03T10:31:48.154Z,424.37
2019-03-03T10:34:27.539Z,525.10
2019-03-03T10:37:03.330Z,506.63
2019-03-03T10:39:27.522Z,423.83
2019-03-03T10:42:09.980Z,426.27
2019-03-03T10:44:46.620Z,378.30
2019-03-03T10:47:07.938Z,427.90
2019-03-03T10:49:24.718Z,463.97
2019-03-03T10:51:42.229Z,453.33
2019-03-03T10:53:57.791Z,436.93
2019-03-03T10:56:23.612Z,444.57
2019-03-03T10:58:45.626Z,444.33
2019-03-03T11:00:55.523Z,488.07
2019-03-03T11:03:18.673Z,560.80
2019-03-03T11:05:40.592Z,518.80
2019-03-03T11:08:10.184Z,522.93
2019-03-03T11:10:23.846Z,518.50
2019-03-03T11:12:56.745Z,514.03
2019-03-03T11:15:18.890Z,549.40
2019-03-03T11:17:55.989Z,552.63
2019-03-03T11:20:22.391Z,578.17
2019-03-03T11:22:44.414Z,598.50
2019-03-03T11:25:07.661Z,578.93
2019-03-03T11:27:49.130Z,589.70
2019-03-03T11:30:08.864Z,741.67
2019-03-03T11:32:32.388Z,653.33
2019-03-03T11:35:07.751Z,668.43
2019-03-03T11:37:29.860Z,636.30
2019-03-03T11:39:53.644Z,639.70
2019-03-03T11:42:32.083Z,640.97
2019-03-03T11:45:04.089Z,638.67
2019-03-03T11:47:35.202Z,630.57
2019-03-03T11:50:02.057Z,706.13
2019-03-03T11:52:36.080Z,647.70
2019-03-03T11:54:47.865Z,621.30
2019-03-03T11:56:58.389Z,579.87
2019-03-03T11:59:32.595Z,565.43
2019-03-03T12:02:14.054Z,622.20
2019-03-03T12:04:29.958Z,565.10
2019-03-03T12:06:47.011Z,561.53
2019-03-03T12:09:12.994Z,900.60
2019-03-03T12:11:39.398Z,538.20
2019-03-03T12:14:03.274Z,529.70
2019-03-03T12:16:26.869Z,512.13
2019-03-03T12:19:01.627Z,508.10
2019-03-03T12:21:28.099Z,498.47
2019-03-03T12:23:42.431Z,478.73
2019-03-03T12:26:20.730Z,473.20
2019-03-03T12:28:46.918Z,481.47
2019-03-03T12:31:09.440Z,468.30
2019-03-03T12:33:31.718Z,450.03
2019-03-03T12:35:55.015Z,635.90
2019-03-03T12:38:16.106Z,568.87
2019-03-03T12:40:58.099Z,972.57
2019-03-03T12:43:23.979Z,640.87
2019-03-03T12:45:44.150Z,562.53
2019-03-03T12:48:13.117Z,475.37
2019-03-03T12:50:40.911Z,425.13
2019-03-03T12:53:00.582Z,404.10
2019-03-03T12:55:19.170Z,393.00
2019-03-03T12:57:31.035Z,375.30
2019-03-03T12:59:48.718Z,372.77
2019-03-03T13:02:20.962Z,368.33
2019-03-03T13:04:45.077Z,518.80
2019-03-03T13:07:07.047Z,746.13
2019-03-03T13:09:36.759Z,806.77
2019-03-03T13:11:55.526Z,842.83
2019-03-03T13:14:23.070Z,894.20
2019-03-03T13:16:37.564Z,856.27
2019-03-03T13:19:04.120Z,825.93
2019-03-03T13:21:25.427Z,651.00
2019-03-03T13:23:40.696Z,525.53
2019-03-03T13:26:13.277Z,436.80
2019-03-03T13:28:35.237Z,331.83
2019-03-03T13:30:50.193Z,523.33
2019-03-03T13:33:13.783Z,501.73
2019-03-03T13:35:40.766Z,388.40
2019-03-03T13:37:54.416Z,308.77
2019-03-03T13:40:15.414Z,282.77
2019-03-03T13:42:35.137Z,271.17
2019-03-03T13:44:39.413Z,259.53
2019-03-03T13:46:45.172Z,261.20
2019-03-03T13:48:51.311Z,247.90
2019-03-03T13:50:57.223Z,244.03
2019-03-03T13:53:01.768Z,238.00
2019-03-03T13:55:10.477Z,231.87
2019-03-03T13:57:16.123Z,223.40
2019-03-03T13:59:20.876Z,222.33
2019-03-03T14:01:29.239Z,215.77
2019-03-03T14:03:33.543Z,209.87
2019-03-03T14:05:38.197Z,205.20
2019-03-03T14:07:42.438Z,206.47
2019-03-03T14:09:46.821Z,201.20
2019-03-03T14:11:51.083Z,192.87
2019-03-03T14:13:59.465Z,190.63
2019-03-03T14:16:06.361Z,188.43
2019-03-03T14:18:13.780Z,188.00
2019-03-03T14:20:20.072Z,183.13
2019-03-03T14:22:24.925Z,178.77
2019-03-03T14:24:31.939Z,171.23
2019-03-03T14:26:37.833Z,173.90
2019-03-03T14:28:43.795Z,169.77
2019-03-03T14:30:48.649Z,167.93
2019-03-03T14:32:53.682Z,162.53
2019-03-03T14:34:58.742Z,156.63
2019-03-03T14:37:03.127Z,156.83
2019-03-03T14:39:08.375Z,152.73
2019-03-03T14:41:12.740Z,148.17
2019-03-03T14:43:19.224Z,148.93
2019-03-03T14:45:25.960Z,146.90
2019-03-03T14:47:30.550Z,145.20
2019-03-03T14:49:35.935Z,141.50
2019-03-03T14:51:41.840Z,143.47
2019-03-03T14:53:46.981Z,136.60
2019-03-03T14:55:58.544Z,135.33
2019-03-03T14:58:03.812Z,137.33
2019-03-03T15:00:41.589Z,137.07
2019-03-03T15:02:46.535Z,131.63
2019-03-03T15:04:50.975Z,128.10
2019-03-03T15:06:55.455Z,131.00
2019-03-03T15:09:00.869Z,126.60
2019-03-03T15:11:05.791Z,127.27
2019-03-03T15:13:10.254Z,122.60
2019-03-03T15:15:15.100Z,120.57
2019-03-03T15:17:19.368Z,117.73
2019-03-03T15:19:24.152Z,116.33
2019-03-03T15:21:30.249Z,113.57
2019-03-03T15:23:34.524Z,114.83
2019-03-03T15:25:38.683Z,112.33
2019-03-03T15:27:44.485Z,112.87
2019-03-03T15:29:48.864Z,109.37
2019-03-03T15:31:53.385Z,107.50
2019-03-03T15:33:58.355Z,110.07
2019-03-03T15:36:02.551Z,105.33
2019-03-03T15:38:06.999Z,105.47
2019-03-03T15:40:18.644Z,103.03
2019-03-03T15:42:22.922Z,100.83
2019-03-03T15:44:27.165Z,99.00
2019-03-03T15:46:32.295Z,99.00
2019-03-03T15:48:36.533Z,98.27
2019-03-03T15:50:40.866Z,95.00
2019-03-03T15:52:48.105Z,94.63
2019-03-03T15:54:58.292Z,93.50
2019-03-03T15:57:03.502Z,89.50
2019-03-03T15:59:08.698Z,94.13
2019-03-03T16:01:16.244Z,92.90
2019-03-03T16:03:20.537Z,85.87
2019-03-03T16:05:25.487Z,85.77
2019-03-03T16:07:29.842Z,81.27
2019-03-03T16:09:34.821Z,86.30
2019-03-03T16:11:39.673Z,83.70
2019-03-03T16:13:45.696Z,83.10
2019-03-03T16:15:49.876Z,82.20
2019-03-03T16:17:54.126Z,77.80
2019-03-03T16:19:58.556Z,79.07
2019-03-03T16:22:03.329Z,82.80
2019-03-03T16:24:08.627Z,75.10
2019-03-03T16:26:14.912Z,79.07
2019-03-03T16:28:19.570Z,149.40
2019-03-03T16:30:25.498Z,587.23
2019-03-03T16:32:30.071Z,744.07
2019-03-03T16:34:35.150Z,716.70
2019-03-03T16:36:42.826Z,436.97
2019-03-03T16:38:52.281Z,224.27
2019-03-03T16:40:57.248Z,559.60
2019-03-03T16:43:01.952Z,612.90
2019-03-03T16:45:10.331Z,664.17
2019-03-03T16:47:15.689Z,697.07
2019-03-03T16:49:20.396Z,672.40
2019-03-03T16:51:25.743Z,444.17
2019-03-03T16:53:35.746Z,949.63
2019-03-03T16:55:41.001Z,721.90
2019-03-03T16:57:51.631Z,499.87
2019-03-03T16:59:59.165Z,324.63
2019-03-03T17:02:04.738Z,188.70
2019-03-03T17:04:10.374Z,122.67
2019-03-03T17:06:20.393Z,256.40
2019-03-03T17:08:25.859Z,697.00
2019-03-03T17:10:31.685Z,581.33
2019-03-03T17:12:36.400Z,615.50
2019-03-03T17:14:42.035Z,521.33
2019-03-03T17:16:46.531Z,351.73
2019-03-03T17:18:51.184Z,479.50
2019-03-03T17:20:56.785Z,383.90
2019-03-03T17:23:01.681Z,273.83
2019-03-03T17:25:09.695Z,160.47
2019-03-03T17:27:14.043Z,103.00
2019-03-03T17:29:20.214Z,71.67
2019-03-03T17:31:26.543Z,61.37
2019-03-03T17:33:37.726Z,58.30
2019-03-03T17:35:42.546Z,51.97
2019-03-03T17:37:47.821Z,51.27
2019-03-03T17:39:53.145Z,50.07
2019-03-03T17:41:57.661Z,46.87
2019-03-03T17:44:02.609Z,49.33
2019-03-03T17:46:07.261Z,48.40
2019-03-03T17:48:12.314Z,171.10
2019-03-03T17:50:17.767Z,302.87
2019-03-03T17:52:22.530Z,262.90
2019-03-03T17:54:27.162Z,261.90
2019-03-03T17:56:35.434Z,79.10
2019-03-03T17:58:40.423Z,229.07
2019-03-03T18:00:49.999Z,203.17
2019-03-03T18:02:55.558Z,664.73
2019-03-03T18:05:00.685Z,746.07
2019-03-03T18:07:09.277Z,475.70
2019-03-03T18:09:14.831Z,675.93
2019-03-03T18:11:21.976Z,945.40
2019-03-03T18:13:26.761Z,942.30
2019-03-03T18:15:31.521Z,886.43
2019-03-03T18:17:37.058Z,692.87
2019-03-03T18:19:42.184Z,877.90
2019-03-03T18:21:47.757Z,748.00
2019-03-03T18:23:52.386Z,590.97
2019-03-03T18:25:57.591Z,487.97
2019-03-03T18:28:02.527Z,493.03
2019-03-03T18:30:27.292Z,272.33
2019-03-03T18:32:32.692Z,129.70
2019-03-03T18:34:37.291Z,97.07
2019-03-03T18:36:41.523Z,235.50
2019-03-03T18:38:47.501Z,171.83
2019-03-03T18:40:52.841Z,94.70
2019-03-03T18:42:57.828Z,118.03
2019-03-03T18:45:04.885Z,91.80
2019-03-03T18:47:21.691Z,256.43
2019-03-03T18:49:27.015Z,153.33
2019-03-03T18:51:32.517Z,131.50
2019-03-03T18:53:41.153Z,213.50
2019-03-03T18:55:45.911Z,157.67
2019-03-03T18:57:54.134Z,154.13
2019-03-03T18:59:58.733Z,289.73
2019-03-03T19:02:04.000Z,267.90
2019-03-03T19:04:09.066Z,159.57
2019-03-03T19:06:13.892Z,255.00
2019-03-03T19:08:18.586Z,289.50
2019-03-03T19:10:25.370Z,243.73
2019-03-03T19:12:30.991Z,125.33
2019-03-03T19:14:36.104Z,61.53
2019-03-03T19:16:41.449Z,60.17
2019-03-03T19:18:49.978Z,51.27
2019-03-03T19:20:54.244Z,74.40
2019-03-03T19:23:03.077Z,94.37
2019-03-03T19:25:09.456Z,47.93
2019-03-03T19:27:18.642Z,63.87
2019-03-03T19:29:27.186Z,276.57
2019-03-03T19:31:34.070Z,414.27
2019-03-03T19:33:48.629Z,225.37
2019-03-03T19:35:52.867Z,65.20
2019-03-03T19:37:59.508Z,49.20
2019-03-03T19:40:10.401Z,200.60
2019-03-03T19:42:14.914Z,430.47
2019-03-03T19:44:29.376Z,207.50
2019-03-03T19:46:37.386Z,227.97
2019-03-03T19:48:45.115Z,152.00
2019-03-03T19:50:59.087Z,68.63
2019-03-03T19:53:11.400Z,267.90
2019-03-03T19:55:23.416Z,339.70
2019-03-03T19:57:29.666Z,166.63
2019-03-03T19:59:36.960Z,186.33
2019-03-03T20:01:43.909Z,127.07
2019-03-03T20:03:55.465Z,89.20
2019-03-03T20:06:10.067Z,228.47
2019-03-03T20:08:14.511Z,82.57
2019-03-03T20:10:19.611Z,50.27
2019-03-03T20:12:28.156Z,42.60
2019-03-03T20:14:33.923Z,39.60
2019-03-03T20:16:57.702Z,37.73
2019-03-03T20:19:02.864Z,37.00
2019-03-03T20:21:10.356Z,32.57
2019-03-03T20:23:18.925Z,33.60
2019-03-03T20:25:28.338Z,62.47
2019-03-03T20:27:33.535Z,122.43
2019-03-03T20:29:39.616Z,65.63
2019-03-03T20:31:44.536Z,73.07
2019-03-03T20:33:54.788Z,44.50
2019-03-03T20:36:00.677Z,48.70
2019-03-03T20:38:08.280Z,42.40
2019-03-03T20:40:14.193Z,64.03
2019-03-03T20:42:19.006Z,43.03
2019-03-03T20:44:24.652Z,234.43
2019-03-03T20:46:29.446Z,69.33
2019-03-03T20:48:34.486Z,40.53
2019-03-03T20:50:39.417Z,35.20
2019-03-03T20:52:43.658Z,33.73
2019-03-03T20:54:48.727Z,32.60
2019-03-03T20:56:53.395Z,406.53
2019-03-03T20:58:58.037Z,184.80
2019-03-03T21:01:03.743Z,61.30
2019-03-03T21:03:09.198Z,38.77
2019-03-03T21:05:14.181Z,35.80
2019-03-03T21:07:18.617Z,32.10
2019-03-03T21:09:25.872Z,68.57
2019-03-03T21:11:30.255Z,213.47
2019-03-03T21:13:34.560Z,442.10
2019-03-03T21:15:40.549Z,202.17
2019-03-03T21:17:44.906Z,74.03
2019-03-03T21:19:49.609Z,41.00
2019-03-03T21:21:57.407Z,99.50
2019-03-03T21:24:01.812Z,52.00
2019-03-03T21:26:08.324Z,111.07
2019-03-03T21:28:14.690Z,164.00
2019-03-03T21:30:21.590Z,83.37
2019-03-03T21:32:26.621Z,43.73
2019-03-03T21:34:32.904Z,36.27
2019-03-03T21:36:37.921Z,56.03
2019-03-03T21:38:42.564Z,54.90
2019-03-03T21:40:47.350Z,55.33
2019-03-03T21:42:52.432Z,318.50
2019-03-03T21:44:57.109Z,465.93
2019-03-03T21:47:03.398Z,507.70
2019-03-03T21:49:08.255Z,314.37
2019-03-03T21:51:12.931Z,149.13
2019-03-03T21:53:17.629Z,64.77
2019-03-03T21:55:22.129Z,45.47
2019-03-03T21:57:27.683Z,35.77
2019-03-03T21:59:32.683Z,32.30
2019-03-03T22:01:37.000Z,31.13
2019-03-03T22:03:41.617Z,30.30
2019-03-03T22:05:46.551Z,28.70
2019-03-03T22:07:51.026Z,28.50
2019-03-03T22:09:55.581Z,28.50
2019-03-03T22:12:00.359Z,343.27
2019-03-03T22:14:04.787Z,200.13
2019-03-03T22:16:09.110Z,142.00
2019-03-03T22:18:14.734Z,76.07
2019-03-03T22:20:19.364Z,55.30
2019-03-03T22:22:23.827Z,157.13
2019-03-03T22:24:28.801Z,67.43
2019-03-03T22:26:33.445Z,395.87
2019-03-03T22:28:38.185Z,398.97
2019-03-03T22:30:43.859Z,291.77
2019-03-03T22:32:48.723Z,276.00
2019-03-03T22:34:53.186Z,146.77
2019-03-03T22:36:57.877Z,77.13
2019-03-03T22:39:02.239Z,44.40
2019-03-03T22:41:07.166Z,34.73
2019-03-03T22:43:12.827Z,28.60
2019-03-03T22:45:17.792Z,27.17
2019-03-03T22:47:22.324Z,27.87
2019-03-03T22:49:26.982Z,25.37
2019-03-03T22:51:31.135Z,24.83
2019-03-03T22:53:35.582Z,24.30
2019-03-03T22:55:41.806Z,23.67
2019-03-03T22:57:45.987Z,22.87
2019-03-03T22:59:50.143Z,24.20
2019-03-03T23:01:54.677Z,23.10
2019-03-03T23:04:25.446Z,23.40
2019-03-03T23:06:51.191Z,22.73
2019-03-03T23:09:48.581Z,22.53
2019-03-03T23:12:05.368Z,20.80
2019-03-03T23:14:43.426Z,23.47
2019-03-03T23:17:27.277Z,23.30
2019-03-03T23:20:09.064Z,22.27
2019-03-03T23:23:04.879Z,21.90
2019-03-03T23:25:45.665Z,23.57
2019-03-03T23:27:49.804Z,21.50
2019-03-03T23:29:54.122Z,22.33
2019-03-03T23:31:58.708Z,22.60
2019-03-03T23:34:03.165Z,23.00
2019-03-03T23:36:07.346Z,22.30
2019-03-03T23:38:11.861Z,22.07
2019-03-03T23:40:16.162Z,22.30
2019-03-03T23:42:20.324Z,22.03
2019-03-03T23:44:24.858Z,22.70
2019-03-03T23:46:29.050Z,22.27
2019-03-03T23:48:33.269Z,21.33
2019-03-03T23:50:37.719Z,21.00
2019-03-03T23:52:41.931Z,21.97
2019-03-03T23:54:46.138Z,21.37
2019-03-03T23:56:50.709Z,21.60
2019-03-03T23:58:55.041Z,22.50
